Weather reports worldwide

Advertisment
Leuchtturm Alte Weser, Germany (10124): temperature & dewpoint: 15.06.2018 23:00:00 - 21.06.2018 23:00:00 (CEST)Leuchtturm Alte Weser, Germany (10124): wind speed & gusts: 15.06.2018 23:00:00 - 21.06.2018 23:00:00 (CEST)Leuchtturm Alte Weser, Germany (10124): wind direction: 15.06.2018 23:00:00 - 21.06.2018 23:00:00 (CEST)Leuchtturm Alte Weser, Germany (10124): reduced air pressure: 15.06.2018 23:00:00 - 21.06.2018 23:00:00 (CEST)Leuchtturm Alte Weser, Germany (10124): sunshine duration: 15.06.2018 23:00:00 - 21.06.2018 23:00:00 (CEST)
Date & Time tt [°C] td [°C] ff [km/h] ff [kn] fx [km/h] fx [kn] dd ppp [hPa] sd [min]
21.06.2018 23:00:00 11,5 8,5 58 31 - - WNW 1016,5 0
21.06.2018 22:00:00 12,5 7,7 54 29 68 37 WNW 1016,6 6
21.06.2018 21:00:00 13,0 8,3 58 31 76 41 WNW 1017,0 18
21.06.2018 20:00:00 13,0 6,4 61 33 - - WNW 1016,9 48
21.06.2018 19:00:00 13,2 6,9 61 33 94 51 WNW 1016,6 18
21.06.2018 18:00:00 13,4 7,0 61 33 72 39 WNW 1016,3 48
21.06.2018 17:00:00 13,2 7,7 61 33 - - NW 1015,9 24
21.06.2018 16:00:00 12,3 7,6 54 29 76 41 WNW 1015,3 42
21.06.2018 15:00:00 10,5 7,7 61 33 76 41 NW 1014,6 36
21.06.2018 14:00:00 12,2 7,0 47 25 - - WNW 1013,3 42
21.06.2018 13:00:00 11,6 6,9 65 35 101 54 WNW 1012,7 12
21.06.2018 12:00:00 12,3 9,3 61 33 72 39 WNW 1011,8 6
21.06.2018 11:00:00 12,2 8,7 47 25 - - WNW 1011,2 0
21.06.2018 10:00:00 13,8 10,2 40 21 - - W 1011,1 0
21.06.2018 09:00:00 13,6 8,9 40 21 - - WNW 1011,4 0
21.06.2018 08:00:00 13,7 8,8 40 21 - - WNW 1011,6 0
21.06.2018 07:00:00 13,8 9,6 40 21 - - WNW 1011,7 0
21.06.2018 06:00:00 14,0 11,0 36 19 - - NW 1011,9 0
21.06.2018 05:00:00 13,7 12,8 32 18 - - WNW 1012,6 0
21.06.2018 04:00:00 13,9 13,7 32 18 - - NW 1012,9 0
21.06.2018 03:00:00 15,3 14,8 29 16 - - WNW 1013,2 0
21.06.2018 02:00:00 15,4 15,4 32 18 - - WNW 1013,6 0
21.06.2018 01:00:00 16,0 15,9 32 18 - - W 1014,0 0
21.06.2018 00:00:00 16,9 16,2 32 18 - - W 1014,5 0
20.06.2018 23:00:00 17,0 16,2 25 14 - - W 1015,0 0
20.06.2018 22:00:00 18,2 16,6 29 16 - - WSW 1015,0 6
20.06.2018 21:00:00 16,6 15,6 32 18 47 25 W 1015,4 48
20.06.2018 20:00:00 16,3 15,4 43 23 - - W 1015,6 60
20.06.2018 19:00:00 16,4 15,7 43 23 50 27 W 1015,8 60
20.06.2018 18:00:00 18,3 15,7 47 25 50 27 W 1016,0 60
20.06.2018 17:00:00 17,8 15,9 40 21 - - W 1016,7 54
20.06.2018 16:00:00 17,8 16,4 32 18 - - W 1017,0 30
20.06.2018 15:00:00 22,1 15,9 36 19 - - SW 1017,0 42
20.06.2018 14:00:00 21,3 15,6 36 19 - - SW 1017,6 30
20.06.2018 13:00:00 20,8 16,1 32 18 - - SW 1018,3 30
20.06.2018 12:00:00 20,5 16,2 32 18 - - SW 1018,8 54
20.06.2018 11:00:00 19,9 16,1 36 19 - - SW 1019,1 54
20.06.2018 10:00:00 18,7 15,6 32 18 - - SSW 1019,3 60
20.06.2018 09:00:00 17,4 15,6 29 16 - - SSW 1019,5 60
20.06.2018 08:00:00 15,9 15,1 32 18 - - SSW 1019,7 30
20.06.2018 07:00:00 15,5 14,6 32 18 - - SSW 1020,0 0
20.06.2018 06:00:00 15,8 14,0 32 18 - - SSW 1020,2 0
20.06.2018 05:00:00 15,9 13,9 29 16 - - SSW 1020,5 0
20.06.2018 04:00:00 16,1 13,6 25 14 - - S 1020,7 0
20.06.2018 03:00:00 16,4 12,7 22 12 - - S 1021,3 0
20.06.2018 02:00:00 16,0 11,8 11 6 - - SSW 1022,0 0
20.06.2018 01:00:00 15,7 11,7 11 6 - - SW 1022,4 0
20.06.2018 00:00:00 15,3 11,6 11 6 - - WSW 1022,7 0
19.06.2018 23:00:00 15,1 11,7 14 8 - - W 1022,9 0
19.06.2018 22:00:00 15,0 11,2 18 10 - - WNW 1022,8 30
19.06.2018 21:00:00 15,2 10,8 22 12 - - WNW 1022,6 60
19.06.2018 20:00:00 15,2 12,4 22 12 - - W 1022,6 60
19.06.2018 19:00:00 15,3 12,0 18 10 - - W 1022,6 60
19.06.2018 18:00:00 15,3 11,5 22 12 - - W 1022,7 60
19.06.2018 17:00:00 15,2 11,8 14 8 - - WNW 1022,6 60
19.06.2018 16:00:00 15,3 11,9 18 10 - - WNW 1022,3 60
19.06.2018 15:00:00 15,2 11,9 22 12 - - WNW 1022,0 60
19.06.2018 14:00:00 15,5 14,6 29 16 - - WNW 1021,5 54
19.06.2018 13:00:00 15,8 14,8 29 16 - - W 1020,9 36
19.06.2018 12:00:00 15,8 15,0 29 16 - - W 1020,4 24
19.06.2018 11:00:00 16,0 14,9 25 14 - - W 1019,8 6
19.06.2018 10:00:00 16,3 15,8 29 16 - - WSW 1019,3 0
19.06.2018 09:00:00 15,6 15,6 32 18 - - SW 1018,3 0
19.06.2018 08:00:00 15,6 15,0 40 21 - - SW 1017,6 0
19.06.2018 07:00:00 16,1 14,3 40 21 47 25 SW 1017,1 0
19.06.2018 06:00:00 16,0 14,3 36 19 47 25 SW 1017,0 0
19.06.2018 05:00:00 15,9 14,1 36 19 - - SW 1016,7 0
19.06.2018 04:00:00 15,6 14,1 32 18 - - SW 1016,8 0
19.06.2018 03:00:00 15,5 14,1 29 16 - - SW 1016,9 0
19.06.2018 02:00:00 15,3 13,9 29 16 - - SW 1017,1 0
19.06.2018 01:00:00 15,6 14,4 32 18 - - SW 1017,5 0
19.06.2018 00:00:00 16,0 14,5 32 18 - - SW 1017,8 0
18.06.2018 23:00:00 16,5 14,9 29 16 - - WSW 1017,6 0
18.06.2018 22:00:00 16,0 14,8 25 14 - - WSW 1017,2 0
18.06.2018 21:00:00 15,6 15,5 25 14 - - W 1017,3 0
18.06.2018 20:00:00 15,9 15,1 18 10 - - W 1017,3 0
18.06.2018 19:00:00 15,8 14,9 22 12 - - WSW 1017,1 0
18.06.2018 18:00:00 15,5 14,8 18 10 - - W 1017,1 0
18.06.2018 17:00:00 15,7 15,1 22 12 - - W 1017,4 0
18.06.2018 16:00:00 16,1 15,6 22 12 - - WSW 1017,4 6
18.06.2018 15:00:00 15,7 15,7 22 12 - - WSW 1017,4 0
18.06.2018 14:00:00 16,0 15,2 22 12 - - SW 1017,3 0
18.06.2018 13:00:00 15,9 14,3 32 18 - - SSW 1017,3 0
18.06.2018 12:00:00 15,4 13,8 36 19 - - SSW 1017,1 0
18.06.2018 11:00:00 14,6 13,8 36 19 - - SSW 1017,2 0
18.06.2018 10:00:00 15,2 13,1 36 19 - - SSW 1017,1 6
18.06.2018 09:00:00 14,9 12,4 32 18 - - SSW 1017,0 0
18.06.2018 08:00:00 14,5 12,0 32 18 - - SSW 1016,9 0
18.06.2018 07:00:00 14,0 12,0 32 18 - - SSW 1016,8 0
18.06.2018 06:00:00 13,8 12,1 32 18 - - SSW 1017,1 0
18.06.2018 05:00:00 14,1 12,7 25 14 - - SSW 1017,1 0
18.06.2018 04:00:00 14,2 12,8 22 12 - - SSW 1017,3 0
18.06.2018 03:00:00 14,8 12,5 22 12 - - SW 1017,4 0
18.06.2018 02:00:00 15,0 12,7 22 12 - - SW 1017,6 0
18.06.2018 01:00:00 15,3 13,0 18 10 - - SW 1017,3 0
18.06.2018 00:00:00 15,6 12,5 18 10 - - WSW 1017,5 0
17.06.2018 23:00:00 15,4 12,4 22 12 - - W 1017,3 0
17.06.2018 22:00:00 15,4 11,8 22 12 - - W 1017,1 0
17.06.2018 21:00:00 15,4 11,5 25 14 - - W 1016,9 12
17.06.2018 20:00:00 15,5 11,5 22 12 - - W 1016,9 36
17.06.2018 19:00:00 15,1 12,0 25 14 - - W 1016,5 6
17.06.2018 18:00:00 15,4 12,6 25 14 - - W 1016,3 6
17.06.2018 17:00:00 15,3 11,5 22 12 - - W 1016,1 30
17.06.2018 16:00:00 15,2 11,9 22 12 - - W 1015,7 12
17.06.2018 15:00:00 14,9 12,0 22 12 - - WNW 1015,4 36
17.06.2018 14:00:00 14,8 12,0 22 12 - - WNW 1014,9 18
17.06.2018 13:00:00 14,6 12,1 29 16 - - WNW 1014,3 0
17.06.2018 12:00:00 15,1 12,6 29 16 - - W 1013,6 30
17.06.2018 11:00:00 16,2 12,4 36 19 - - SW 1013,3 12
17.06.2018 10:00:00 15,9 11,9 32 18 - - SW 1013,0 12
17.06.2018 09:00:00 14,8 12,5 32 18 - - SSW 1012,7 6
17.06.2018 08:00:00 14,5 12,0 29 16 - - SW 1012,6 48
17.06.2018 07:00:00 14,2 12,0 29 16 - - SW 1012,7 54
17.06.2018 06:00:00 14,4 10,9 29 16 - - SW 1012,6 0
17.06.2018 05:00:00 15,4 11,0 29 16 - - SW 1012,7 0
17.06.2018 04:00:00 15,6 11,3 29 16 - - SW 1012,7 0
17.06.2018 03:00:00 15,8 13,9 18 10 - - SSW 1013,2 0
17.06.2018 02:00:00 15,7 14,5 18 10 - - S 1013,2 0
17.06.2018 01:00:00 15,9 14,1 11 6 - - S 1013,4 0
17.06.2018 00:00:00 15,9 13,1 11 6 - - SW 1013,7 0
16.06.2018 23:00:00 16,3 12,5 7 4 - - W 1013,3 0
16.06.2018 22:00:00 16,5 12,6 7 4 - - NW 1013,2 0
16.06.2018 21:00:00 16,2 13,5 11 6 - - WNW 1013,3 18
16.06.2018 20:00:00 16,4 13,6 14 8 - - WNW 1013,2 12
16.06.2018 19:00:00 17,4 12,1 7 4 - - N 1012,8 0
16.06.2018 18:00:00 17,3 11,6 7 4 - - N 1013,0 6
16.06.2018 17:00:00 17,0 12,4 11 6 - - NNW 1013,3 12
16.06.2018 16:00:00 17,4 12,0 18 10 - - WNW 1013,2 0
16.06.2018 15:00:00 17,1 12,1 25 14 - - NW 1012,8 0
16.06.2018 14:00:00 17,7 13,9 14 8 - - NW 1013,4 24
16.06.2018 13:00:00 18,5 13,7 4 2 - - SW 1013,7 60
16.06.2018 12:00:00 18,2 14,6 11 6 - - S 1013,8 30
16.06.2018 11:00:00 17,4 14,4 14 8 - - S 1013,9 6
16.06.2018 10:00:00 17,5 13,6 14 8 - - SSE 1013,8 0
16.06.2018 09:00:00 17,1 13,2 14 8 - - SSE 1014,0 0
16.06.2018 08:00:00 16,6 12,4 14 8 - - SE 1014,2 0
16.06.2018 07:00:00 16,6 12,0 18 10 - - ESE 1014,4 0
16.06.2018 06:00:00 16,9 11,3 22 12 - - ESE 1014,5 0
16.06.2018 05:00:00 17,2 11,5 25 14 - - ESE 1014,8 0
16.06.2018 04:00:00 17,1 12,7 29 16 - - E 1015,0 0
16.06.2018 03:00:00 17,0 13,5 25 14 - - E 1015,5 0
16.06.2018 02:00:00 17,5 11,3 25 14 - - E 1015,8 0
16.06.2018 01:00:00 17,5 12,2 18 10 - - ENE 1016,1 0
16.06.2018 00:00:00 17,9 10,1 18 10 - - NE 1016,1 0
15.06.2018 23:00:00 17,7 10,7 14 8 - - NE 1016,3 0

tt = temperature
td = dewpoint
ff = wind speed
fx = gusts
dd = wind direction
ppp = reduced air pressure
sd = sunshine duration

Next stations